Wan Hai 510 — 9VJJ8 — position and weather

sailwx.info

Track history (hours):
 
Tides and Currents Weather Stations Pressure Air Temp Water Temp Dewpoint Dewpoint Depression Visibility Wind Speed Wind Dir Waves Ship Positions

Wan Hai 510

Last reported at 2014-Nov-24 07:25 UTC. Time now 2014-Nov-24 08:24 UTC.
Position N 22°35' E 120°18'.

Length 269 m; draft 9.8 m.

Type: Cargo ship. MMSI: 565741000.

Date/timePositionNaut miles runAvg speedWind from/ knotsBaromVisibWave heightAir tempDewpointWater temp
2014-Nov-24 07:25N 22°35' E 120°18'0 0.0
2014-Nov-24 05:19N 22°35' E 120°18'0 0.0
2014-Nov-24 04:31N 22°35' E 120°18'0 0.0
2014-Nov-24 03:31N 22°35' E 120°18'0 0.0
2014-Nov-24 02:31N 22°35' E 120°18'0 0.0
2014-Nov-24 01:31N 22°35' E 120°18'0 0.0
2014-Nov-24 00:25N 22°35' E 120°18'0 0.0
2014-Nov-23 23:25N 22°35' E 120°18'0 0.0
2014-Nov-23 22:31N 22°35' E 120°18'0 0.0
2014-Nov-23 21:25N 22°35' E 120°18'0 0.0
2014-Nov-23 20:31N 22°35' E 120°18'0 0.0
2014-Nov-23 19:25N 22°35' E 120°18'0 0.0
2014-Nov-23 15:31N 22°35' E 120°18'0 0.0
2014-Nov-23 13:31N 22°35' E 120°18'0 0.0
2014-Nov-23 12:13N 22°35' E 120°18'0 0.0
2014-Nov-23 10:33N 22°35' E 120°18'4 4.4
2014-Nov-23 09:33N 22°32' E 120°15'0 0.1
2014-Nov-23 08:28N 22°32' E 120°15'0 0.0
2014-Nov-23 07:28N 22°32' E 120°15'0 0.0
2014-Nov-23 06:28N 22°32' E 120°15'0 0.1
2014-Nov-23 04:33N 22°31' E 120°15'1313.5
2014-Nov-23 03:33N 22°21' E 120°05'  
2014-Nov-19 13:33N 01°13' E 103°56'6 6.2
2014-Nov-19 12:33N 01°16' E 103°50'0 0.0
2014-Nov-19 11:31N 01°16' E 103°50'0 0.0
2014-Nov-19 10:31N 01°16' E 103°50'0 0.0
2014-Nov-19 09:31N 01°16' E 103°50'0 0.0
2014-Nov-19 08:31N 01°16' E 103°50'0 0.0
2014-Nov-19 07:31N 01°16' E 103°50'0 0.0
2014-Nov-19 06:31N 01°16' E 103°50'0 0.0
2014-Nov-19 05:28N 01°16' E 103°50'0 0.0
2014-Nov-19 04:31N 01°16' E 103°50'0 0.0
2014-Nov-19 03:31N 01°16' E 103°50'0 0.0
2014-Nov-19 02:31N 01°16' E 103°50'0 0.0
2014-Nov-19 01:25N 01°16' E 103°50'0 0.0
2014-Nov-19 00:31N 01°16' E 103°50'0 0.0
2014-Nov-18 23:16N 01°16' E 103°50'0 0.0
2014-Nov-18 22:31N 01°16' E 103°50'0 0.0
2014-Nov-18 21:31N 01°16' E 103°50'0 0.0
2014-Nov-18 20:31N 01°16' E 103°50'0 0.0
2014-Nov-18 19:31N 01°16' E 103°50'0 0.0
2014-Nov-18 18:31N 01°16' E 103°50'0 0.0
2014-Nov-18 17:32N 01°16' E 103°50'2 1.7
2014-Nov-18 16:33N 01°15' E 103°52'3 2.9
2014-Nov-18 15:28N 01°12' E 103°52'9 9.4
2014-Nov-18 14:33N 01°07' E 103°45'  
Track history (hours):
 
Tides and Currents Weather Stations Pressure Air Temp Water Temp Dewpoint Dewpoint Depression Visibility Wind Speed Wind Dir Waves Ship Positions

Wan Hai 510

Last reported at 2014-Nov-24 07:25 UTC. Time now 2014-Nov-24 08:24 UTC.
Position N 22°35' E 120°18'.

Length 269 m; draft 9.8 m.

Type: Cargo ship. MMSI: 565741000.

Date/timePositionNaut miles runAvg speedWind from/ knotsBaromVisibWave heightAir tempDewpointWater temp
2014-Nov-24 07:25N 22°35' E 120°18'0 0.0
2014-Nov-24 05:19N 22°35' E 120°18'0 0.0
2014-Nov-24 04:31N 22°35' E 120°18'0 0.0
2014-Nov-24 03:31N 22°35' E 120°18'0 0.0
2014-Nov-24 02:31N 22°35' E 120°18'0 0.0
2014-Nov-24 01:31N 22°35' E 120°18'0 0.0
2014-Nov-24 00:25N 22°35' E 120°18'0 0.0
2014-Nov-23 23:25N 22°35' E 120°18'0 0.0
2014-Nov-23 22:31N 22°35' E 120°18'0 0.0
2014-Nov-23 21:25N 22°35' E 120°18'0 0.0
2014-Nov-23 20:31N 22°35' E 120°18'0 0.0
2014-Nov-23 19:25N 22°35' E 120°18'0 0.0
2014-Nov-23 15:31N 22°35' E 120°18'0 0.0
2014-Nov-23 13:31N 22°35' E 120°18'0 0.0
2014-Nov-23 12:13N 22°35' E 120°18'0 0.0
2014-Nov-23 10:33N 22°35' E 120°18'4 4.4
2014-Nov-23 09:33N 22°32' E 120°15'0 0.1
2014-Nov-23 08:28N 22°32' E 120°15'0 0.0
2014-Nov-23 07:28N 22°32' E 120°15'0 0.0
2014-Nov-23 06:28N 22°32' E 120°15'0 0.1
2014-Nov-23 04:33N 22°31' E 120°15'1313.5
2014-Nov-23 03:33N 22°21' E 120°05'  
2014-Nov-19 13:33N 01°13' E 103°56'6 6.2
2014-Nov-19 12:33N 01°16' E 103°50'0 0.0
2014-Nov-19 11:31N 01°16' E 103°50'0 0.0
2014-Nov-19 10:31N 01°16' E 103°50'0 0.0
2014-Nov-19 09:31N 01°16' E 103°50'0 0.0
2014-Nov-19 08:31N 01°16' E 103°50'0 0.0
2014-Nov-19 07:31N 01°16' E 103°50'0 0.0
2014-Nov-19 06:31N 01°16' E 103°50'0 0.0
2014-Nov-19 05:28N 01°16' E 103°50'0 0.0
2014-Nov-19 04:31N 01°16' E 103°50'0 0.0
2014-Nov-19 03:31N 01°16' E 103°50'0 0.0
2014-Nov-19 02:31N 01°16' E 103°50'0 0.0
2014-Nov-19 01:25N 01°16' E 103°50'0 0.0
2014-Nov-19 00:31N 01°16' E 103°50'0 0.0
2014-Nov-18 23:16N 01°16' E 103°50'0 0.0
2014-Nov-18 22:31N 01°16' E 103°50'0 0.0
2014-Nov-18 21:31N 01°16' E 103°50'0 0.0
2014-Nov-18 20:31N 01°16' E 103°50'0 0.0
2014-Nov-18 19:31N 01°16' E 103°50'0 0.0
2014-Nov-18 18:31N 01°16' E 103°50'0 0.0
2014-Nov-18 17:32N 01°16' E 103°50'2 1.7
2014-Nov-18 16:33N 01°15' E 103°52'3 2.9
2014-Nov-18 15:28N 01°12' E 103°52'9 9.4
2014-Nov-18 14:33N 01°07' E 103°45'  

Dump ship's entire track history